sensor_id;sensor_type;location;lat;lon;timestamp;pressure;altitude;pressure_sealevel;temperature;humidity
19114;BME280;9689;51.052;13.772;2024-02-26T00:00:52;99035.25;;;2.77;92.84
19114;BME280;9689;51.052;13.772;2024-02-26T00:05:54;99029.31;;;2.71;93.00
19114;BME280;9689;51.052;13.772;2024-02-26T00:10:55;99026.78;;;2.66;93.08
19114;BME280;9689;51.052;13.772;2024-02-26T00:15:57;99019.94;;;2.65;93.63
19114;BME280;9689;51.052;13.772;2024-02-26T00:20:58;99036.25;;;2.61;93.19
19114;BME280;9689;51.052;13.772;2024-02-26T00:26:00;99019.13;;;2.59;93.28
19114;BME280;9689;51.052;13.772;2024-02-26T00:31:02;99021.72;;;2.55;93.29
19114;BME280;9689;51.052;13.772;2024-02-26T00:36:03;99020.06;;;2.50;93.53
19114;BME280;9689;51.052;13.772;2024-02-26T00:41:04;99019.22;;;2.48;93.92
19114;BME280;9689;51.052;13.772;2024-02-26T00:46:06;99013.19;;;2.50;93.85
19114;BME280;9689;51.052;13.772;2024-02-26T00:51:07;99004.72;;;2.39;93.75
19114;BME280;9689;51.052;13.772;2024-02-26T00:56:08;99004.75;;;2.38;93.59
19114;BME280;9689;51.052;13.772;2024-02-26T01:01:10;99005.69;;;2.28;93.45
19114;BME280;9689;51.052;13.772;2024-02-26T01:06:11;99003.13;;;2.26;94.05
19114;BME280;9689;51.052;13.772;2024-02-26T01:11:12;98993.69;;;2.23;94.24
19114;BME280;9689;51.052;13.772;2024-02-26T01:16:14;99001.38;;;2.25;94.35
19114;BME280;9689;51.052;13.772;2024-02-26T01:21:15;98996.34;;;2.17;95.23
19114;BME280;9689;51.052;13.772;2024-02-26T01:26:16;98993.72;;;2.22;95.38
19114;BME280;9689;51.052;13.772;2024-02-26T01:31:18;98979.97;;;2.24;95.75
19114;BME280;9689;51.052;13.772;2024-02-26T01:36:18;98973.97;;;2.24;95.34
19114;BME280;9689;51.052;13.772;2024-02-26T01:41:20;98971.44;;;2.22;95.49
19114;BME280;9689;51.052;13.772;2024-02-26T01:46:22;98961.16;;;2.21;96.02
19114;BME280;9689;51.052;13.772;2024-02-26T01:51:23;98957.78;;;2.17;95.89
19114;BME280;9689;51.052;13.772;2024-02-26T01:56:24;98954.34;;;2.17;95.94
19114;BME280;9689;51.052;13.772;2024-02-26T02:01:31;98950.06;;;2.19;95.87
19114;BME280;9689;51.052;13.772;2024-02-26T02:06:32;98942.34;;;2.16;96.12
19114;BME280;9689;51.052;13.772;2024-02-26T02:11:33;98944.94;;;2.14;96.21
19114;BME280;9689;51.052;13.772;2024-02-26T02:16:36;98935.56;;;2.12;96.10
19114;BME280;9689;51.052;13.772;2024-02-26T02:21:38;98935.56;;;2.07;95.90
19114;BME280;9689;51.052;13.772;2024-02-26T02:26:39;98938.19;;;2.04;95.77
19114;BME280;9689;51.052;13.772;2024-02-26T02:31:40;98938.22;;;1.98;95.67
19114;BME280;9689;51.052;13.772;2024-02-26T02:36:52;98934.81;;;1.94;96.30
19114;BME280;9689;51.052;13.772;2024-02-26T02:41:54;98934.91;;;1.85;96.57
19114;BME280;9689;51.052;13.772;2024-02-26T02:46:54;98931.47;;;1.82;96.29
19114;BME280;9689;51.052;13.772;2024-02-26T02:51:57;98928.97;;;1.77;96.02
19114;BME280;9689;51.052;13.772;2024-02-26T02:56:57;98934.09;;;1.77;96.28
19114;BME280;9689;51.052;13.772;2024-02-26T03:01:58;98945.25;;;1.75;96.08
19114;BME280;9689;51.052;13.772;2024-02-26T03:07:00;98944.41;;;1.74;95.90
19114;BME280;9689;51.052;13.772;2024-02-26T03:12:01;98950.41;;;1.68;96.06
19114;BME280;9689;51.052;13.772;2024-02-26T03:17:02;98949.53;;;1.71;96.55
19114;BME280;9689;51.052;13.772;2024-02-26T03:22:05;98945.22;;;1.76;96.69
19114;BME280;9689;51.052;13.772;2024-02-26T03:27:05;98952.06;;;1.77;96.64
19114;BME280;9689;51.052;13.772;2024-02-26T03:32:09;98958.94;;;1.75;95.79
19114;BME280;9689;51.052;13.772;2024-02-26T03:37:11;98960.63;;;1.73;96.08
19114;BME280;9689;51.052;13.772;2024-02-26T03:42:12;98964.09;;;1.69;96.04
19114;BME280;9689;51.052;13.772;2024-02-26T03:47:13;98965.84;;;1.62;95.65
19114;BME280;9689;51.052;13.772;2024-02-26T03:52:15;98968.44;;;1.61;96.53
19114;BME280;9689;51.052;13.772;2024-02-26T03:57:15;98973.59;;;1.55;95.92
19114;BME280;9689;51.052;13.772;2024-02-26T04:02:16;98971.03;;;1.55;96.11
19114;BME280;9689;51.052;13.772;2024-02-26T04:07:20;98980.47;;;1.51;95.68
19114;BME280;9689;51.052;13.772;2024-02-26T04:12:21;98977.91;;;1.51;96.12
19114;BME280;9689;51.052;13.772;2024-02-26T04:17:22;98980.50;;;1.48;95.75
19114;BME280;9689;51.052;13.772;2024-02-26T04:22:24;98982.22;;;1.43;96.25
19114;BME280;9689;51.052;13.772;2024-02-26T04:27:25;98975.34;;;1.45;96.66
19114;BME280;9689;51.052;13.772;2024-02-26T04:32:25;98980.47;;;1.47;96.20
19114;BME280;9689;51.052;13.772;2024-02-26T04:37:28;98983.03;;;1.45;96.58
19114;BME280;9689;51.052;13.772;2024-02-26T04:42:31;98979.63;;;1.43;96.54
19114;BME280;9689;51.052;13.772;2024-02-26T04:47:31;98981.34;;;1.42;96.74
19114;BME280;9689;51.052;13.772;2024-02-26T04:52:34;98977.06;;;1.45;96.85
19114;BME280;9689;51.052;13.772;2024-02-26T04:57:34;98985.63;;;1.45;96.77
19114;BME280;9689;51.052;13.772;2024-02-26T05:02:35;98983.91;;;1.44;96.94
19114;BME280;9689;51.052;13.772;2024-02-26T05:07:41;98995.06;;;1.40;97.29
19114;BME280;9689;51.052;13.772;2024-02-26T05:12:43;98995.91;;;1.44;97.56
19114;BME280;9689;51.052;13.772;2024-02-26T05:17:44;99001.88;;;1.50;97.27
19114;BME280;9689;51.052;13.772;2024-02-26T05:22:46;99007.84;;;1.52;97.20
19114;BME280;9689;51.052;13.772;2024-02-26T05:27:47;99010.44;;;1.49;97.15
19114;BME280;9689;51.052;13.772;2024-02-26T05:32:48;99005.31;;;1.41;97.25
19114;BME280;9689;51.052;13.772;2024-02-26T05:37:50;99013.03;;;1.35;97.17
19114;BME280;9689;51.052;13.772;2024-02-26T05:42:51;99004.47;;;1.38;97.55
19114;BME280;9689;51.052;13.772;2024-02-26T05:47:52;99012.16;;;1.36;97.24
19114;BME280;9689;51.052;13.772;2024-02-26T05:52:54;99015.63;;;1.29;97.18
19114;BME280;9689;51.052;13.772;2024-02-26T05:57:54;99024.16;;;1.30;97.78
19114;BME280;9689;51.052;13.772;2024-02-26T06:02:55;99026.75;;;1.31;97.23
19114;BME280;9689;51.052;13.772;2024-02-26T06:07:57;99025.91;;;1.31;97.40
19114;BME280;9689;51.052;13.772;2024-02-26T06:12:58;99027.56;;;1.42;97.78
19114;BME280;9689;51.052;13.772;2024-02-26T06:17:59;99030.09;;;1.50;97.14
19114;BME280;9689;51.052;13.772;2024-02-26T06:23:01;99028.34;;;1.54;96.46
19114;BME280;9689;51.052;13.772;2024-02-26T06:28:02;99036.84;;;1.65;96.56
19114;BME280;9689;51.052;13.772;2024-02-26T06:33:03;99030.81;;;1.83;95.90
19114;BME280;9689;51.052;13.772;2024-02-26T06:38:06;99039.28;;;1.95;95.30
19114;BME280;9689;51.052;13.772;2024-02-26T06:43:07;99035.78;;;2.09;95.22
19114;BME280;9689;51.052;13.772;2024-02-26T06:48:08;99030.53;;;2.22;94.52
19114;BME280;9689;51.052;13.772;2024-02-26T06:53:10;99036.38;;;2.43;93.88
19114;BME280;9689;51.052;13.772;2024-02-26T06:58:11;99020.81;;;2.60;93.84
19114;BME280;9689;51.052;13.772;2024-02-26T07:03:12;99030.13;;;2.74;92.65
19114;BME280;9689;51.052;13.772;2024-02-26T07:08:14;99030.88;;;2.89;92.70
19114;BME280;9689;51.052;13.772;2024-02-26T07:13:15;99031.56;;;3.04;91.98
19114;BME280;9689;51.052;13.772;2024-02-26T07:18:16;99033.91;;;3.26;91.77
19114;BME280;9689;51.052;13.772;2024-02-26T07:23:19;99036.22;;;3.49;91.36
19114;BME280;9689;51.052;13.772;2024-02-26T07:28:19;99028.34;;;3.61;90.85
19114;BME280;9689;51.052;13.772;2024-02-26T07:33:20;99033.28;;;3.78;90.41
19114;BME280;9689;51.052;13.772;2024-02-26T07:38:23;99040.94;;;3.84;88.87
19114;BME280;9689;51.052;13.772;2024-02-26T07:43:40;99037.50;;;3.85;89.61
19114;BME280;9689;51.052;13.772;2024-02-26T07:48:41;99039.13;;;3.92;89.87
19114;BME280;9689;51.052;13.772;2024-02-26T07:53:44;99028.66;;;4.03;88.81
19114;BME280;9689;51.052;13.772;2024-02-26T07:58:44;99030.88;;;4.27;88.82
19114;BME280;9689;51.052;13.772;2024-02-26T08:03:45;99027.97;;;4.48;88.53
19114;BME280;9689;51.052;13.772;2024-02-26T08:08:47;99033.75;;;4.63;88.31
19114;BME280;9689;51.052;13.772;2024-02-26T08:13:48;99027.31;;;4.88;88.20
19114;BME280;9689;51.052;13.772;2024-02-26T08:18:49;99024.28;;;5.11;86.56
19114;BME280;9689;51.052;13.772;2024-02-26T08:23:51;99042.06;;;5.28;86.38
19114;BME280;9689;51.052;13.772;2024-02-26T08:28:52;99041.59;;;5.52;86.89
19114;BME280;9689;51.052;13.772;2024-02-26T08:33:55;99042.66;;;5.84;86.48
19114;BME280;9689;51.052;13.772;2024-02-26T08:38:58;99044.41;;;6.23;86.77
19114;BME280;9689;51.052;13.772;2024-02-26T08:43:59;99044.63;;;7.20;89.73
19114;BME280;9689;51.052;13.772;2024-02-26T08:49:00;99042.16;;;7.48;86.88
19114;BME280;9689;51.052;13.772;2024-02-26T08:54:02;99038.19;;;7.65;84.66
19114;BME280;9689;51.052;13.772;2024-02-26T08:59:03;99041.31;;;8.06;84.18
19114;BME280;9689;51.052;13.772;2024-02-26T09:04:04;99049.13;;;8.33;82.47
19114;BME280;9689;51.052;13.772;2024-02-26T09:09:06;99034.31;;;8.38;80.30
19114;BME280;9689;51.052;13.772;2024-02-26T09:14:07;99029.13;;;8.38;79.43
19114;BME280;9689;51.052;13.772;2024-02-26T09:19:07;99025.50;;;8.70;79.58
19114;BME280;9689;51.052;13.772;2024-02-26T09:24:10;99014.16;;;8.46;74.71
19114;BME280;9689;51.052;13.772;2024-02-26T09:29:11;99029.06;;;8.39;75.69
19114;BME280;9689;51.052;13.772;2024-02-26T09:34:11;99032.66;;;8.34;75.57
19114;BME280;9689;51.052;13.772;2024-02-26T09:39:14;99039.09;;;8.50;74.87
19114;BME280;9689;51.052;13.772;2024-02-26T09:44:20;99035.97;;;8.67;74.23
19114;BME280;9689;51.052;13.772;2024-02-26T09:49:23;99037.63;;;8.69;74.09
19114;BME280;9689;51.052;13.772;2024-02-26T09:54:27;99031.91;;;8.85;73.44
19114;BME280;9689;51.052;13.772;2024-02-26T09:59:38;99029.78;;;8.97;73.38
19114;BME280;9689;51.052;13.772;2024-02-26T10:04:40;99031.75;;;9.16;72.16
19114;BME280;9689;51.052;13.772;2024-02-26T10:09:48;99043.31;;;9.55;71.80
19114;BME280;9689;51.052;13.772;2024-02-26T10:14:48;99044.53;;;9.70;69.00
19114;BME280;9689;51.052;13.772;2024-02-26T10:19:49;99044.88;;;9.84;68.30
19114;BME280;9689;51.052;13.772;2024-02-26T10:24:53;99060.78;;;9.99;67.96
19114;BME280;9689;51.052;13.772;2024-02-26T10:29:56;99057.56;;;10.15;67.09
19114;BME280;9689;51.052;13.772;2024-02-26T10:34:57;99047.91;;;10.41;66.19
19114;BME280;9689;51.052;13.772;2024-02-26T10:39:59;99046.06;;;10.44;64.78
19114;BME280;9689;51.052;13.772;2024-02-26T10:45:00;99051.81;;;10.31;65.11
19114;BME280;9689;51.052;13.772;2024-02-26T10:50:03;99057.22;;;10.25;64.99
19114;BME280;9689;51.052;13.772;2024-02-26T10:55:05;99049.09;;;10.34;65.78
19114;BME280;9689;51.052;13.772;2024-02-26T11:00:08;99051.34;;;10.19;65.24
19114;BME280;9689;51.052;13.772;2024-02-26T11:05:13;99043.41;;;10.46;64.29
19114;BME280;9689;51.052;13.772;2024-02-26T11:10:16;99045.75;;;10.52;64.17
19114;BME280;9689;51.052;13.772;2024-02-26T11:15:18;99035.22;;;10.55;63.00
19114;BME280;9689;51.052;13.772;2024-02-26T11:20:20;99046.53;;;10.54;63.36
19114;BME280;9689;51.052;13.772;2024-02-26T11:25:22;99037.66;;;10.80;62.56
19114;BME280;9689;51.052;13.772;2024-02-26T11:30:24;99029.78;;;11.02;62.15
19114;BME280;9689;51.052;13.772;2024-02-26T11:35:27;99029.34;;;10.92;62.29
19114;BME280;9689;51.052;13.772;2024-02-26T11:40:31;99033.13;;;11.26;60.46
19114;BME280;9689;51.052;13.772;2024-02-26T11:45:49;99030.97;;;11.36;60.22
19114;BME280;9689;51.052;13.772;2024-02-26T11:50:53;99024.00;;;11.55;59.46
19114;BME280;9689;51.052;13.772;2024-02-26T11:56:28;99030.69;;;11.42;58.74
19114;BME280;9689;51.052;13.772;2024-02-26T12:01:42;99023.91;;;11.38;59.75
19114;BME280;9689;51.052;13.772;2024-02-26T12:06:48;99030.47;;;11.67;58.96
19114;BME280;9689;51.052;13.772;2024-02-26T12:11:50;99025.59;;;11.59;58.99
19114;BME280;9689;51.052;13.772;2024-02-26T12:16:51;99029.09;;;11.58;59.03
19114;BME280;9689;51.052;13.772;2024-02-26T12:21:53;99033.56;;;11.75;57.99
19114;BME280;9689;51.052;13.772;2024-02-26T12:26:55;99048.31;;;11.76;57.27
19114;BME280;9689;51.052;13.772;2024-02-26T12:31:57;99044.31;;;12.06;56.77
19114;BME280;9689;51.052;13.772;2024-02-26T12:36:59;99043.56;;;12.04;56.04
19114;BME280;9689;51.052;13.772;2024-02-26T12:42:03;99042.56;;;12.26;56.26
19114;BME280;9689;51.052;13.772;2024-02-26T12:47:04;99036.78;;;12.19;55.38
19114;BME280;9689;51.052;13.772;2024-02-26T12:52:05;99039.75;;;12.11;56.24
19114;BME280;9689;51.052;13.772;2024-02-26T12:57:08;99036.78;;;12.19;56.02
19114;BME280;9689;51.052;13.772;2024-02-26T13:02:09;99037.66;;;12.01;56.65
19114;BME280;9689;51.052;13.772;2024-02-26T13:07:10;99046.47;;;12.17;55.42
19114;BME280;9689;51.052;13.772;2024-02-26T13:12:12;99051.97;;;12.11;55.68
19114;BME280;9689;51.052;13.772;2024-02-26T13:17:13;99049.75;;;12.21;56.07
19114;BME280;9689;51.052;13.772;2024-02-26T13:22:14;99059.22;;;12.04;55.72
19114;BME280;9689;51.052;13.772;2024-02-26T13:27:22;99061.91;;;12.03;55.94
19114;BME280;9689;51.052;13.772;2024-02-26T13:32:23;99064.94;;;12.12;55.72
19114;BME280;9689;51.052;13.772;2024-02-26T13:37:30;99077.09;;;12.13;56.00
19114;BME280;9689;51.052;13.772;2024-02-26T13:42:32;99063.41;;;12.08;55.67
19114;BME280;9689;51.052;13.772;2024-02-26T13:47:33;99063.19;;;12.13;55.91
19114;BME280;9689;51.052;13.772;2024-02-26T13:52:34;99064.94;;;12.12;55.58
19114;BME280;9689;51.052;13.772;2024-02-26T13:57:36;99070.41;;;12.08;55.94
19114;BME280;9689;51.052;13.772;2024-02-26T14:02:37;99068.47;;;11.93;56.50
19114;BME280;9689;51.052;13.772;2024-02-26T14:07:39;99073.13;;;11.86;56.53
19114;BME280;9689;51.052;13.772;2024-02-26T14:12:41;99077.50;;;11.85;56.33
19114;BME280;9689;51.052;13.772;2024-02-26T14:17:42;99085.84;;;11.73;57.51
19114;BME280;9689;51.052;13.772;2024-02-26T14:22:43;99094.09;;;11.64;57.89
19114;BME280;9689;51.052;13.772;2024-02-26T14:27:45;99096.72;;;11.63;58.52
19114;BME280;9689;51.052;13.772;2024-02-26T14:32:46;99106.31;;;11.62;58.01
19114;BME280;9689;51.052;13.772;2024-02-26T14:37:47;99108.69;;;11.48;58.76
19114;BME280;9689;51.052;13.772;2024-02-26T14:42:50;99122.19;;;11.37;58.75
19114;BME280;9689;51.052;13.772;2024-02-26T14:47:51;99128.75;;;11.25;59.18
19114;BME280;9689;51.052;13.772;2024-02-26T14:52:52;99135.41;;;11.12;60.00
19114;BME280;9689;51.052;13.772;2024-02-26T14:57:54;99151.72;;;10.73;61.50
19114;BME280;9689;51.052;13.772;2024-02-26T15:02:54;99159.84;;;10.88;60.42
19114;BME280;9689;51.052;13.772;2024-02-26T15:07:55;99161.72;;;10.62;61.70
19114;BME280;9689;51.052;13.772;2024-02-26T15:12:57;99164.41;;;10.59;61.91
19114;BME280;9689;51.052;13.772;2024-02-26T15:17:58;99156.22;;;10.46;61.47
19114;BME280;9689;51.052;13.772;2024-02-26T15:22:59;99150.97;;;10.48;61.75
19114;BME280;9689;51.052;13.772;2024-02-26T15:28:01;99146.44;;;10.53;61.99
19114;BME280;9689;51.052;13.772;2024-02-26T15:33:02;99157.38;;;10.39;61.29
19114;BME280;9689;51.052;13.772;2024-02-26T15:38:03;99157.50;;;10.36;61.71
19114;BME280;9689;51.052;13.772;2024-02-26T15:43:05;99161.28;;;10.28;62.15
19114;BME280;9689;51.052;13.772;2024-02-26T15:48:07;99167.41;;;10.27;61.59
19114;BME280;9689;51.052;13.772;2024-02-26T15:53:09;99178.16;;;10.16;62.94
19114;BME280;9689;51.052;13.772;2024-02-26T15:58:11;99177.69;;;10.05;63.92
19114;BME280;9689;51.052;13.772;2024-02-26T16:03:12;99176.13;;;10.01;63.33
19114;BME280;9689;51.052;13.772;2024-02-26T16:08:18;99184.16;;;9.95;63.62
19114;BME280;9689;51.052;13.772;2024-02-26T16:13:22;99189.63;;;9.87;63.89
19114;BME280;9689;51.052;13.772;2024-02-26T16:18:23;99184.66;;;9.79;64.09
19114;BME280;9689;51.052;13.772;2024-02-26T16:23:24;99199.59;;;9.74;65.39
19114;BME280;9689;51.052;13.772;2024-02-26T16:28:26;99202.66;;;9.60;65.38
19114;BME280;9689;51.052;13.772;2024-02-26T16:33:26;99210.63;;;9.56;65.49
19114;BME280;9689;51.052;13.772;2024-02-26T16:38:27;99221.13;;;9.53;66.08
19114;BME280;9689;51.052;13.772;2024-02-26T16:49:24;99243.88;;;9.46;66.79
19114;BME280;9689;51.052;13.772;2024-02-26T16:54:25;99247.31;;;9.47;66.08
19114;BME280;9689;51.052;13.772;2024-02-26T16:59:26;99264.41;;;9.82;66.96
19114;BME280;9689;51.052;13.772;2024-02-26T17:04:29;99267.00;;;9.82;66.68
19114;BME280;9689;51.052;13.772;2024-02-26T17:09:30;99267.50;;;9.67;65.94
19114;BME280;9689;51.052;13.772;2024-02-26T17:14:31;99280.88;;;9.54;66.43
19114;BME280;9689;51.052;13.772;2024-02-26T17:19:33;99288.69;;;9.54;66.74
19114;BME280;9689;51.052;13.772;2024-02-26T17:24:34;99294.84;;;9.52;67.30
19114;BME280;9689;51.052;13.772;2024-02-26T17:29:35;99297.56;;;9.49;67.47
19114;BME280;9689;51.052;13.772;2024-02-26T17:34:38;99308.34;;;9.63;66.23
19114;BME280;9689;51.052;13.772;2024-02-26T17:39:41;99309.59;;;9.51;66.24
19114;BME280;9689;51.052;13.772;2024-02-26T17:44:42;99325.13;;;9.81;75.11
19114;BME280;9689;51.052;13.772;2024-02-26T17:49:45;99322.06;;;9.95;69.86
19114;BME280;9689;51.052;13.772;2024-02-26T17:54:46;99321.25;;;10.19;71.99
19114;BME280;9689;51.052;13.772;2024-02-26T17:59:47;99329.88;;;9.95;65.62
19114;BME280;9689;51.052;13.772;2024-02-26T18:04:49;99331.47;;;9.72;66.79
19114;BME280;9689;51.052;13.772;2024-02-26T18:09:50;99329.28;;;9.60;66.85
19114;BME280;9689;51.052;13.772;2024-02-26T18:14:51;99333.63;;;9.59;66.04
19114;BME280;9689;51.052;13.772;2024-02-26T18:19:53;99328.81;;;9.47;67.37
19114;BME280;9689;51.052;13.772;2024-02-26T18:24:54;99330.75;;;9.41;67.25
19114;BME280;9689;51.052;13.772;2024-02-26T18:29:55;99323.41;;;9.25;69.24
19114;BME280;9689;51.052;13.772;2024-02-26T18:34:58;99331.13;;;8.99;70.06
19114;BME280;9689;51.052;13.772;2024-02-26T18:39:59;99340.84;;;8.92;71.08
19114;BME280;9689;51.052;13.772;2024-02-26T18:45:00;99346.13;;;8.89;70.95
19114;BME280;9689;51.052;13.772;2024-02-26T18:50:02;99343.81;;;8.80;71.44
19114;BME280;9689;51.052;13.772;2024-02-26T18:55:04;99353.56;;;8.72;72.40
19114;BME280;9689;51.052;13.772;2024-02-26T19:00:07;99356.34;;;8.64;72.24
19114;BME280;9689;51.052;13.772;2024-02-26T19:05:10;99363.44;;;8.58;72.33
19114;BME280;9689;51.052;13.772;2024-02-26T19:10:11;99370.53;;;8.51;73.40
19114;BME280;9689;51.052;13.772;2024-02-26T19:15:12;99371.69;;;8.41;74.02
19114;BME280;9689;51.052;13.772;2024-02-26T19:20:18;99369.25;;;8.33;74.24
19114;BME280;9689;51.052;13.772;2024-02-26T19:25:19;99382.94;;;8.06;75.59
19114;BME280;9689;51.052;13.772;2024-02-26T19:30:19;99374.44;;;7.99;76.12
19114;BME280;9689;51.052;13.772;2024-02-26T19:35:22;99376.66;;;7.79;77.08
19114;BME280;9689;51.052;13.772;2024-02-26T19:40:22;99387.22;;;7.71;77.87
19114;BME280;9689;51.052;13.772;2024-02-26T19:45:23;99391.75;;;7.61;78.53
19114;BME280;9689;51.052;13.772;2024-02-26T19:50:26;99380.78;;;7.50;78.58
19114;BME280;9689;51.052;13.772;2024-02-26T19:55:27;99401.81;;;7.36;79.56
19114;BME280;9689;51.052;13.772;2024-02-26T20:00:28;99409.75;;;7.30;79.81
19114;BME280;9689;51.052;13.772;2024-02-26T20:05:31;99409.84;;;7.24;80.21
19114;BME280;9689;51.052;13.772;2024-02-26T20:10:32;99425.22;;;7.33;80.36
19114;BME280;9689;51.052;13.772;2024-02-26T20:15:32;99427.09;;;7.25;80.79
19114;BME280;9689;51.052;13.772;2024-02-26T20:20:35;99439.91;;;7.33;80.81
19114;BME280;9689;51.052;13.772;2024-02-26T20:25:36;99446.84;;;7.32;80.99
19114;BME280;9689;51.052;13.772;2024-02-26T20:30:37;99452.75;;;7.39;80.60
19114;BME280;9689;51.052;13.772;2024-02-26T20:35:40;99462.97;;;7.45;81.18
19114;BME280;9689;51.052;13.772;2024-02-26T20:40:41;99464.78;;;7.42;81.06
19114;BME280;9689;51.052;13.772;2024-02-26T20:45:41;99473.53;;;7.36;81.45
19114;BME280;9689;51.052;13.772;2024-02-26T20:50:50;99481.38;;;7.33;81.16
19114;BME280;9689;51.052;13.772;2024-02-26T20:55:51;99486.03;;;7.16;82.57
19114;BME280;9689;51.052;13.772;2024-02-26T21:00:53;99492.28;;;7.05;83.08
19114;BME280;9689;51.052;13.772;2024-02-26T21:05:56;99502.00;;;6.93;83.37
19114;BME280;9689;51.052;13.772;2024-02-26T21:10:57;99503.09;;;6.81;84.14
19114;BME280;9689;51.052;13.772;2024-02-26T21:15:58;99511.81;;;6.75;84.66
19114;BME280;9689;51.052;13.772;2024-02-26T21:21:00;99517.97;;;6.68;84.58
19114;BME280;9689;51.052;13.772;2024-02-26T21:26:01;99536.88;;;6.73;84.44
19114;BME280;9689;51.052;13.772;2024-02-26T21:31:02;99541.31;;;6.65;85.16
19114;BME280;9689;51.052;13.772;2024-02-26T21:36:06;99534.66;;;6.50;85.29
19114;BME280;9689;51.052;13.772;2024-02-26T21:41:07;99533.13;;;6.39;85.70
19114;BME280;9689;51.052;13.772;2024-02-26T21:46:08;99526.28;;;6.35;86.54
19114;BME280;9689;51.052;13.772;2024-02-26T21:51:10;99534.09;;;6.32;86.48
19114;BME280;9689;51.052;13.772;2024-02-26T21:56:10;99541.06;;;6.25;87.03
19114;BME280;9689;51.052;13.772;2024-02-26T22:01:11;99548.00;;;6.23;87.28
19114;BME280;9689;51.052;13.772;2024-02-26T22:06:14;99562.72;;;6.19;87.76
19114;BME280;9689;51.052;13.772;2024-02-26T22:11:15;99577.56;;;6.08;88.15
19114;BME280;9689;51.052;13.772;2024-02-26T22:16:16;99575.78;;;6.12;88.74
19114;BME280;9689;51.052;13.772;2024-02-26T22:21:18;99575.63;;;6.21;87.75
19114;BME280;9689;51.052;13.772;2024-02-26T22:26:19;99572.06;;;6.30;87.49
19114;BME280;9689;51.052;13.772;2024-02-26T22:31:20;99576.25;;;6.38;87.37
19114;BME280;9689;51.052;13.772;2024-02-26T22:36:23;99587.47;;;6.37;87.34
19114;BME280;9689;51.052;13.772;2024-02-26T22:41:24;99600.28;;;6.46;86.66
19114;BME280;9689;51.052;13.772;2024-02-26T22:46:25;99597.63;;;6.53;86.66
19114;BME280;9689;51.052;13.772;2024-02-26T22:51:27;99584.72;;;6.48;87.17
19114;BME280;9689;51.052;13.772;2024-02-26T22:56:28;99572.97;;;6.27;87.25
19114;BME280;9689;51.052;13.772;2024-02-26T23:01:30;99608.34;;;6.27;87.50
19114;BME280;9689;51.052;13.772;2024-02-26T23:06:32;99596.38;;;6.16;88.18
19114;BME280;9689;51.052;13.772;2024-02-26T23:11:33;99603.22;;;6.22;88.70
19114;BME280;9689;51.052;13.772;2024-02-26T23:16:34;99603.28;;;6.16;89.07
19114;BME280;9689;51.052;13.772;2024-02-26T23:21:37;99617.00;;;6.22;88.60
19114;BME280;9689;51.052;13.772;2024-02-26T23:26:38;99623.06;;;6.21;89.32
19114;BME280;9689;51.052;13.772;2024-02-26T23:31:39;99628.22;;;6.23;89.41
19114;BME280;9689;51.052;13.772;2024-02-26T23:36:41;99618.69;;;6.25;89.87
19114;BME280;9689;51.052;13.772;2024-02-26T23:41:42;99626.47;;;6.23;89.76
19114;BME280;9689;51.052;13.772;2024-02-26T23:46:43;99621.41;;;6.16;90.21
19114;BME280;9689;51.052;13.772;2024-02-26T23:51:46;99628.28;;;6.18;90.58
19114;BME280;9689;51.052;13.772;2024-02-26T23:56:47;99624.88;;;6.15;90.85
